This is the latest recevied weather packets stored in our database for station/object KB1ZFK. If no packets are shown the sender has not sent any weather packets the latest 10 day(s).
| Time | Temp. | Humidity | Pressure | Rain* | Wind** | Luminosity | Snow |
|---|---|---|---|---|---|---|---|
| 1777479196 | 12.78° C | 68% | 1015.3 hPa | 0 mm | - | 934 W/m² | - |
| 1777478893 | 12.78° C | 68% | 1015.2 hPa | 0 mm | - | 432 W/m² | - |
| 1777478589 | 12.78° C | 68% | 1015.2 hPa | 0 mm | - | 622 W/m² | - |
| 1777478286 | 13.33° C | 66% | 1015.3 hPa | 0 mm | - | 1051 W/m² | - |
| 1777477983 | 11.67° C | 68% | 1015.3 hPa | 0 mm | - | 549 W/m² | - |
| 1777477677 | 12.78° C | 66% | 1015.4 hPa | 0 mm | - | 803 W/m² | - |
| 1777477375 | 12.22° C | 68% | 1015.5 hPa | 0 mm | - | 579 W/m² | - |
| 1777477071 | 12.22° C | 68% | 1015.8 hPa | 0 mm | - | 970 W/m² | - |
| 1777476769 | 12.22° C | 68% | 1015.6 hPa | 0 mm | - | 769 W/m² | - |
| 1777476465 | 12.22° C | 69% | 1015.7 hPa | 0 mm | - | 391 W/m² | - |
| 1777476162 | 11.67° C | 68% | 1015.7 hPa | 0 mm | - | 938 W/m² | - |
| 1777475857 | 11.67° C | 70% | 1015.9 hPa | 0 mm | - | 327 W/m² | - |
| 1777475554 | 12.78° C | 68% | 1016 hPa | 0 mm | - | 381 W/m² | - |
| 1777475250 | 12.78° C | 67% | 1016.3 hPa | 0 mm | - | 899 W/m² | - |
| 1777474945 | 12.22° C | 68% | 1016.2 hPa | 0 mm | - | 606 W/m² | - |
| 1777474642 | 11.67° C | 69% | 1016.3 hPa | 0 mm | - | 937 W/m² | - |
| 1777474339 | 11.11° C | 72% | 1016.4 hPa | 0 mm | - | 580 W/m² | - |
| 1777474035 | 12.22° C | 69% | 1016.4 hPa | 0 mm | - | 423 W/m² | - |
| 1777473733 | 11.67° C | 69% | 1016.4 hPa | 0 mm | - | 771 W/m² | - |
| 1777473430 | 12.22° C | 68% | 1016.6 hPa | 0 mm | - | 693 W/m² | - |
| 1777473125 | 12.22° C | 69% | 1016.5 hPa | 0 mm | - | 818 W/m² | - |
| 1777472822 | 11.67° C | 69% | 1016.8 hPa | 0 mm | - | 698 W/m² | - |
| 1777472518 | 11.67° C | 70% | 1016.7 hPa | 0 mm | - | 780 W/m² | - |
| 1777472215 | 10.56° C | 72% | 1017.1 hPa | 0 mm | - | 366 W/m² | - |
| 1777471911 | 10.56° C | 73% | 1017.3 hPa | 0 mm | - | 264 W/m² | - |
* Rain latest hour (hover to see other rain measurements)
** Current wind speed in m/s (hover to see current wind gust speed)